sensor_id;sensor_type;location;lat;lon;timestamp;temperature;humidity
15359;DHT22;7779;49.596;11.070;2023-04-22T00:00:29;13.20;54.90
15359;DHT22;7779;49.596;11.070;2023-04-22T00:02:54;13.20;55.00
15359;DHT22;7779;49.596;11.070;2023-04-22T00:05:20;13.10;55.00
15359;DHT22;7779;49.596;11.070;2023-04-22T00:07:46;13.10;55.10
15359;DHT22;7779;49.596;11.070;2023-04-22T00:10:12;13.10;55.20
15359;DHT22;7779;49.596;11.070;2023-04-22T00:12:38;13.00;55.20
15359;DHT22;7779;49.596;11.070;2023-04-22T00:15:04;13.00;55.30
15359;DHT22;7779;49.596;11.070;2023-04-22T00:17:31;13.00;55.30
15359;DHT22;7779;49.596;11.070;2023-04-22T00:19:57;12.90;55.90
15359;DHT22;7779;49.596;11.070;2023-04-22T00:22:24;12.90;55.40
15359;DHT22;7779;49.596;11.070;2023-04-22T00:24:50;12.80;55.40
15359;DHT22;7779;49.596;11.070;2023-04-22T00:27:16;12.80;55.50
15359;DHT22;7779;49.596;11.070;2023-04-22T00:29:42;12.70;55.50
15359;DHT22;7779;49.596;11.070;2023-04-22T00:32:07;12.70;55.60
15359;DHT22;7779;49.596;11.070;2023-04-22T00:34:33;12.70;55.80
15359;DHT22;7779;49.596;11.070;2023-04-22T00:36:59;12.60;55.80
15359;DHT22;7779;49.596;11.070;2023-04-22T00:39:25;12.60;55.90
15359;DHT22;7779;49.596;11.070;2023-04-22T00:41:51;12.60;56.00
15359;DHT22;7779;49.596;11.070;2023-04-22T00:44:18;12.60;56.00
15359;DHT22;7779;49.596;11.070;2023-04-22T00:46:43;12.60;56.10
15359;DHT22;7779;49.596;11.070;2023-04-22T00:49:10;12.50;56.10
15359;DHT22;7779;49.596;11.070;2023-04-22T00:51:36;12.50;56.10
15359;DHT22;7779;49.596;11.070;2023-04-22T00:54:01;12.50;56.10
15359;DHT22;7779;49.596;11.070;2023-04-22T00:56:30;12.40;56.10
15359;DHT22;7779;49.596;11.070;2023-04-22T00:59:00;12.40;56.10
15359;DHT22;7779;49.596;11.070;2023-04-22T01:01:27;12.30;56.10
15359;DHT22;7779;49.596;11.070;2023-04-22T01:03:55;12.30;56.20
15359;DHT22;7779;49.596;11.070;2023-04-22T01:06:23;12.20;56.10
15359;DHT22;7779;49.596;11.070;2023-04-22T01:08:48;12.20;56.20
15359;DHT22;7779;49.596;11.070;2023-04-22T01:11:15;12.10;56.20
15359;DHT22;7779;49.596;11.070;2023-04-22T01:13:41;12.00;56.20
15359;DHT22;7779;49.596;11.070;2023-04-22T01:16:07;12.00;56.30
15359;DHT22;7779;49.596;11.070;2023-04-22T01:18:34;11.90;56.40
15359;DHT22;7779;49.596;11.070;2023-04-22T01:21:01;11.80;56.50
15359;DHT22;7779;49.596;11.070;2023-04-22T01:23:27;11.80;56.60
15359;DHT22;7779;49.596;11.070;2023-04-22T01:25:53;11.70;57.20
15359;DHT22;7779;49.596;11.070;2023-04-22T01:28:19;11.70;56.70
15359;DHT22;7779;49.596;11.070;2023-04-22T01:30:45;11.60;56.70
15359;DHT22;7779;49.596;11.070;2023-04-22T01:33:14;11.50;56.70
15359;DHT22;7779;49.596;11.070;2023-04-22T01:35:40;11.50;56.90
15359;DHT22;7779;49.596;11.070;2023-04-22T01:38:08;11.50;57.00
15359;DHT22;7779;49.596;11.070;2023-04-22T01:40:36;11.40;57.10
15359;DHT22;7779;49.596;11.070;2023-04-22T01:43:03;11.40;57.20
15359;DHT22;7779;49.596;11.070;2023-04-22T01:45:29;11.30;57.20
15359;DHT22;7779;49.596;11.070;2023-04-22T01:47:56;11.30;57.30
15359;DHT22;7779;49.596;11.070;2023-04-22T01:50:23;11.30;57.50
15359;DHT22;7779;49.596;11.070;2023-04-22T01:52:49;11.20;57.50
15359;DHT22;7779;49.596;11.070;2023-04-22T01:55:15;11.20;57.60
15359;DHT22;7779;49.596;11.070;2023-04-22T01:57:42;11.20;57.70
15359;DHT22;7779;49.596;11.070;2023-04-22T02:00:08;11.20;58.70
15359;DHT22;7779;49.596;11.070;2023-04-22T02:02:43;11.10;57.90
15359;DHT22;7779;49.596;11.070;2023-04-22T02:05:09;11.20;58.00
15359;DHT22;7779;49.596;11.070;2023-04-22T02:07:35;11.10;57.90
15359;DHT22;7779;49.596;11.070;2023-04-22T02:10:02;11.10;58.00
15359;DHT22;7779;49.596;11.070;2023-04-22T02:12:32;11.10;58.10
15359;DHT22;7779;49.596;11.070;2023-04-22T02:14:58;11.10;58.20
15359;DHT22;7779;49.596;11.070;2023-04-22T02:17:24;11.10;58.30
15359;DHT22;7779;49.596;11.070;2023-04-22T02:19:50;11.10;58.40
15359;DHT22;7779;49.596;11.070;2023-04-22T02:22:16;11.10;58.40
15359;DHT22;7779;49.596;11.070;2023-04-22T02:24:42;11.10;58.40
15359;DHT22;7779;49.596;11.070;2023-04-22T02:27:08;11.10;58.50
15359;DHT22;7779;49.596;11.070;2023-04-22T02:29:34;11.10;58.50
15359;DHT22;7779;49.596;11.070;2023-04-22T02:31:59;11.10;58.60
15359;DHT22;7779;49.596;11.070;2023-04-22T02:34:26;11.10;58.70
15359;DHT22;7779;49.596;11.070;2023-04-22T02:36:53;11.10;58.70
15359;DHT22;7779;49.596;11.070;2023-04-22T02:39:19;11.10;58.70
15359;DHT22;7779;49.596;11.070;2023-04-22T02:41:45;11.10;58.70
15359;DHT22;7779;49.596;11.070;2023-04-22T02:44:11;11.10;58.80
15359;DHT22;7779;49.596;11.070;2023-04-22T02:46:37;11.10;58.70
15359;DHT22;7779;49.596;11.070;2023-04-22T02:49:02;11.10;58.70
15359;DHT22;7779;49.596;11.070;2023-04-22T02:51:28;11.10;58.70
15359;DHT22;7779;49.596;11.070;2023-04-22T02:53:54;11.10;58.70
15359;DHT22;7779;49.596;11.070;2023-04-22T02:56:20;11.00;58.60
15359;DHT22;7779;49.596;11.070;2023-04-22T02:58:45;11.00;58.60
15359;DHT22;7779;49.596;11.070;2023-04-22T03:01:11;11.00;58.70
15359;DHT22;7779;49.596;11.070;2023-04-22T03:03:37;10.90;58.60
15359;DHT22;7779;49.596;11.070;2023-04-22T03:06:06;10.90;58.70
15359;DHT22;7779;49.596;11.070;2023-04-22T03:08:32;10.90;58.70
15359;DHT22;7779;49.596;11.070;2023-04-22T03:10:58;10.80;58.70
15359;DHT22;7779;49.596;11.070;2023-04-22T03:13:24;10.80;58.80
15359;DHT22;7779;49.596;11.070;2023-04-22T03:15:50;10.80;58.80
15359;DHT22;7779;49.596;11.070;2023-04-22T03:18:16;10.70;58.80
15359;DHT22;7779;49.596;11.070;2023-04-22T03:20:43;10.70;58.90
15359;DHT22;7779;49.596;11.070;2023-04-22T03:23:08;10.70;58.90
15359;DHT22;7779;49.596;11.070;2023-04-22T03:25:35;10.70;58.90
15359;DHT22;7779;49.596;11.070;2023-04-22T03:28:02;10.60;59.50
15359;DHT22;7779;49.596;11.070;2023-04-22T03:30:29;10.60;58.90
15359;DHT22;7779;49.596;11.070;2023-04-22T03:32:56;10.50;59.00
15359;DHT22;7779;49.596;11.070;2023-04-22T03:35:34;10.50;59.60
15359;DHT22;7779;49.596;11.070;2023-04-22T03:38:00;10.40;59.00
15359;DHT22;7779;49.596;11.070;2023-04-22T03:40:30;10.40;59.10
15359;DHT22;7779;49.596;11.070;2023-04-22T03:42:56;10.30;59.10
15359;DHT22;7779;49.596;11.070;2023-04-22T03:45:22;10.30;59.20
15359;DHT22;7779;49.596;11.070;2023-04-22T03:48:00;10.20;59.20
15359;DHT22;7779;49.596;11.070;2023-04-22T03:50:35;10.20;59.30
15359;DHT22;7779;49.596;11.070;2023-04-22T03:53:01;10.10;59.40
15359;DHT22;7779;49.596;11.070;2023-04-22T03:55:26;10.10;59.40
15359;DHT22;7779;49.596;11.070;2023-04-22T03:57:54;10.00;59.40
15359;DHT22;7779;49.596;11.070;2023-04-22T04:00:20;9.90;60.50
15359;DHT22;7779;49.596;11.070;2023-04-22T04:02:53;9.90;60.50
15359;DHT22;7779;49.596;11.070;2023-04-22T04:05:23;9.80;60.50
15359;DHT22;7779;49.596;11.070;2023-04-22T04:07:49;9.80;60.60
15359;DHT22;7779;49.596;11.070;2023-04-22T04:10:15;9.70;61.80
15359;DHT22;7779;49.596;11.070;2023-04-22T04:12:41;9.70;60.80
15359;DHT22;7779;49.596;11.070;2023-04-22T04:15:07;9.60;60.80
15359;DHT22;7779;49.596;11.070;2023-04-22T04:17:34;9.60;61.00
15359;DHT22;7779;49.596;11.070;2023-04-22T04:20:01;9.50;61.00
15359;DHT22;7779;49.596;11.070;2023-04-22T04:22:28;9.50;61.10
15359;DHT22;7779;49.596;11.070;2023-04-22T04:24:58;9.40;61.20
15359;DHT22;7779;49.596;11.070;2023-04-22T04:27:28;9.40;61.40
15359;DHT22;7779;49.596;11.070;2023-04-22T04:29:54;9.30;61.40
15359;DHT22;7779;49.596;11.070;2023-04-22T04:32:32;9.30;61.60
15359;DHT22;7779;49.596;11.070;2023-04-22T04:35:01;9.30;61.60
15359;DHT22;7779;49.596;11.070;2023-04-22T04:37:27;9.30;61.80
15359;DHT22;7779;49.596;11.070;2023-04-22T04:40:00;9.30;61.80
15359;DHT22;7779;49.596;11.070;2023-04-22T04:42:36;9.30;62.00
15359;DHT22;7779;49.596;11.070;2023-04-22T04:45:06;9.20;62.00
15359;DHT22;7779;49.596;11.070;2023-04-22T04:47:34;9.30;62.20
15359;DHT22;7779;49.596;11.070;2023-04-22T04:50:10;9.30;62.30
15359;DHT22;7779;49.596;11.070;2023-04-22T04:52:37;9.30;62.40
15359;DHT22;7779;49.596;11.070;2023-04-22T04:55:03;9.30;62.50
15359;DHT22;7779;49.596;11.070;2023-04-22T04:57:30;9.30;62.60
15359;DHT22;7779;49.596;11.070;2023-04-22T04:59:56;9.30;62.60
15359;DHT22;7779;49.596;11.070;2023-04-22T05:02:22;9.30;62.80
15359;DHT22;7779;49.596;11.070;2023-04-22T05:04:48;9.40;63.00
15359;DHT22;7779;49.596;11.070;2023-04-22T05:07:14;9.40;63.00
15359;DHT22;7779;49.596;11.070;2023-04-22T05:09:40;9.50;64.30
15359;DHT22;7779;49.596;11.070;2023-04-22T05:12:07;9.50;63.30
15359;DHT22;7779;49.596;11.070;2023-04-22T05:14:34;9.60;63.60
15359;DHT22;7779;49.596;11.070;2023-04-22T05:17:01;9.70;63.90
15359;DHT22;7779;49.596;11.070;2023-04-22T05:19:28;9.80;64.10
15359;DHT22;7779;49.596;11.070;2023-04-22T05:21:55;9.90;64.10
15359;DHT22;7779;49.596;11.070;2023-04-22T05:24:21;10.10;63.60
15359;DHT22;7779;49.596;11.070;2023-04-22T05:26:47;10.30;63.30
15359;DHT22;7779;49.596;11.070;2023-04-22T05:29:17;10.40;63.30
15359;DHT22;7779;49.596;11.070;2023-04-22T05:31:42;10.60;63.40
15359;DHT22;7779;49.596;11.070;2023-04-22T05:34:08;10.70;63.40
15359;DHT22;7779;49.596;11.070;2023-04-22T05:36:34;10.90;63.40
15359;DHT22;7779;49.596;11.070;2023-04-22T05:39:00;11.20;63.60
15359;DHT22;7779;49.596;11.070;2023-04-22T05:41:27;11.30;63.50
15359;DHT22;7779;49.596;11.070;2023-04-22T05:43:55;11.60;63.60
15359;DHT22;7779;49.596;11.070;2023-04-22T05:46:20;11.80;63.60
15359;DHT22;7779;49.596;11.070;2023-04-22T05:48:47;12.10;64.20
15359;DHT22;7779;49.596;11.070;2023-04-22T05:51:42;12.30;63.30
15359;DHT22;7779;49.596;11.070;2023-04-22T05:54:11;12.60;63.10
15359;DHT22;7779;49.596;11.070;2023-04-22T05:56:36;12.90;63.00
15359;DHT22;7779;49.596;11.070;2023-04-22T05:59:02;13.20;62.70
15359;DHT22;7779;49.596;11.070;2023-04-22T06:01:28;13.40;62.40
15359;DHT22;7779;49.596;11.070;2023-04-22T06:03:58;13.70;62.20
15359;DHT22;7779;49.596;11.070;2023-04-22T06:06:24;14.00;61.80
15359;DHT22;7779;49.596;11.070;2023-04-22T06:08:51;14.30;61.70
15359;DHT22;7779;49.596;11.070;2023-04-22T06:11:17;14.50;61.30
15359;DHT22;7779;49.596;11.070;2023-04-22T06:13:43;14.80;61.00
15359;DHT22;7779;49.596;11.070;2023-04-22T06:16:09;15.00;60.70
15359;DHT22;7779;49.596;11.070;2023-04-22T06:18:35;15.20;60.30
15359;DHT22;7779;49.596;11.070;2023-04-22T06:21:02;15.40;59.90
15359;DHT22;7779;49.596;11.070;2023-04-22T06:23:28;15.60;59.50
15359;DHT22;7779;49.596;11.070;2023-04-22T06:25:54;15.70;59.20
15359;DHT22;7779;49.596;11.070;2023-04-22T06:28:20;15.90;59.00
15359;DHT22;7779;49.596;11.070;2023-04-22T06:30:48;16.00;58.80
15359;DHT22;7779;49.596;11.070;2023-04-22T06:33:15;16.10;58.60
15359;DHT22;7779;49.596;11.070;2023-04-22T06:35:41;16.20;58.30
15359;DHT22;7779;49.596;11.070;2023-04-22T06:38:07;16.40;58.20
15359;DHT22;7779;49.596;11.070;2023-04-22T06:40:40;16.50;58.10
15359;DHT22;7779;49.596;11.070;2023-04-22T06:43:22;16.60;57.80
15359;DHT22;7779;49.596;11.070;2023-04-22T06:46:08;16.70;57.60
15359;DHT22;7779;49.596;11.070;2023-04-22T06:48:59;16.90;57.60
15359;DHT22;7779;49.596;11.070;2023-04-22T06:51:25;17.00;57.30
15359;DHT22;7779;49.596;11.070;2023-04-22T06:53:51;17.10;56.90
15359;DHT22;7779;49.596;11.070;2023-04-22T06:56:17;17.20;56.70
15359;DHT22;7779;49.596;11.070;2023-04-22T06:58:43;17.30;56.50
15359;DHT22;7779;49.596;11.070;2023-04-22T07:01:09;17.40;56.20
15359;DHT22;7779;49.596;11.070;2023-04-22T07:03:36;17.40;56.10
15359;DHT22;7779;49.596;11.070;2023-04-22T07:06:07;17.50;56.00
15359;DHT22;7779;49.596;11.070;2023-04-22T07:08:33;17.70;55.90
15359;DHT22;7779;49.596;11.070;2023-04-22T07:10:59;17.70;55.70
15359;DHT22;7779;49.596;11.070;2023-04-22T07:13:57;17.90;55.50
15359;DHT22;7779;49.596;11.070;2023-04-22T07:16:23;18.00;55.50
15359;DHT22;7779;49.596;11.070;2023-04-22T07:18:50;18.10;55.40
15359;DHT22;7779;49.596;11.070;2023-04-22T07:21:16;18.20;55.30
15359;DHT22;7779;49.596;11.070;2023-04-22T07:23:42;18.30;55.10
15359;DHT22;7779;49.596;11.070;2023-04-22T07:26:07;18.40;55.10
15359;DHT22;7779;49.596;11.070;2023-04-22T07:28:33;18.50;55.00
15359;DHT22;7779;49.596;11.070;2023-04-22T07:30:59;18.60;54.80
15359;DHT22;7779;49.596;11.070;2023-04-22T07:33:25;18.70;54.60
15359;DHT22;7779;49.596;11.070;2023-04-22T07:35:50;18.80;54.50
15359;DHT22;7779;49.596;11.070;2023-04-22T07:38:16;18.80;54.10
15359;DHT22;7779;49.596;11.070;2023-04-22T07:40:42;18.90;54.00
15359;DHT22;7779;49.596;11.070;2023-04-22T07:43:08;19.00;53.90
15359;DHT22;7779;49.596;11.070;2023-04-22T07:45:33;19.00;53.70
15359;DHT22;7779;49.596;11.070;2023-04-22T07:47:59;19.10;53.60
15359;DHT22;7779;49.596;11.070;2023-04-22T07:50:25;19.20;53.60
15359;DHT22;7779;49.596;11.070;2023-04-22T07:52:51;19.20;53.40
15359;DHT22;7779;49.596;11.070;2023-04-22T07:55:16;19.30;53.40
15359;DHT22;7779;49.596;11.070;2023-04-22T07:57:42;19.40;53.40
15359;DHT22;7779;49.596;11.070;2023-04-22T08:00:09;19.40;53.30
15359;DHT22;7779;49.596;11.070;2023-04-22T08:02:38;19.50;53.10
15359;DHT22;7779;49.596;11.070;2023-04-22T08:05:04;19.60;53.10
15359;DHT22;7779;49.596;11.070;2023-04-22T08:07:30;19.70;53.00
15359;DHT22;7779;49.596;11.070;2023-04-22T08:09:56;19.80;51.30
15359;DHT22;7779;49.596;11.070;2023-04-22T08:12:22;19.80;52.60
15359;DHT22;7779;49.596;11.070;2023-04-22T08:14:47;19.80;52.10
15359;DHT22;7779;49.596;11.070;2023-04-22T08:17:13;19.90;52.70
15359;DHT22;7779;49.596;11.070;2023-04-22T08:19:39;19.90;52.10
15359;DHT22;7779;49.596;11.070;2023-04-22T08:22:04;20.00;52.30
15359;DHT22;7779;49.596;11.070;2023-04-22T08:24:31;20.00;52.20
15359;DHT22;7779;49.596;11.070;2023-04-22T08:26:57;20.10;51.80
15359;DHT22;7779;49.596;11.070;2023-04-22T08:29:23;20.10;51.80
15359;DHT22;7779;49.596;11.070;2023-04-22T08:31:48;20.10;51.70
15359;DHT22;7779;49.596;11.070;2023-04-22T08:34:14;20.20;51.60
15359;DHT22;7779;49.596;11.070;2023-04-22T08:36:41;20.20;52.10
15359;DHT22;7779;49.596;11.070;2023-04-22T08:39:07;20.30;51.50
15359;DHT22;7779;49.596;11.070;2023-04-22T08:41:33;20.30;51.40
15359;DHT22;7779;49.596;11.070;2023-04-22T08:44:00;20.30;51.20
15359;DHT22;7779;49.596;11.070;2023-04-22T08:46:26;20.40;51.30
15359;DHT22;7779;49.596;11.070;2023-04-22T08:48:53;20.40;51.10
15359;DHT22;7779;49.596;11.070;2023-04-22T08:51:19;20.50;50.90
15359;DHT22;7779;49.596;11.070;2023-04-22T08:53:46;20.60;50.90
15359;DHT22;7779;49.596;11.070;2023-04-22T08:56:12;20.70;50.90
15359;DHT22;7779;49.596;11.070;2023-04-22T08:58:41;20.70;50.80
15359;DHT22;7779;49.596;11.070;2023-04-22T09:01:08;20.80;50.40
15359;DHT22;7779;49.596;11.070;2023-04-22T09:03:35;20.80;50.50
15359;DHT22;7779;49.596;11.070;2023-04-22T09:06:05;20.90;50.40
15359;DHT22;7779;49.596;11.070;2023-04-22T09:08:32;21.00;50.40
15359;DHT22;7779;49.596;11.070;2023-04-22T09:10:58;21.10;50.20
15359;DHT22;7779;49.596;11.070;2023-04-22T09:13:25;21.20;50.00
15359;DHT22;7779;49.596;11.070;2023-04-22T09:15:51;21.20;49.80
15359;DHT22;7779;49.596;11.070;2023-04-22T09:18:18;21.30;49.70
15359;DHT22;7779;49.596;11.070;2023-04-22T09:20:46;21.40;49.70
15359;DHT22;7779;49.596;11.070;2023-04-22T09:23:13;21.40;49.50
15359;DHT22;7779;49.596;11.070;2023-04-22T09:25:39;21.50;49.30
15359;DHT22;7779;49.596;11.070;2023-04-22T09:28:06;21.60;49.40
15359;DHT22;7779;49.596;11.070;2023-04-22T09:30:36;21.70;49.20
15359;DHT22;7779;49.596;11.070;2023-04-22T09:33:04;21.70;49.00
15359;DHT22;7779;49.596;11.070;2023-04-22T09:35:39;21.80;48.90
15359;DHT22;7779;49.596;11.070;2023-04-22T09:38:07;21.90;48.00
15359;DHT22;7779;49.596;11.070;2023-04-22T09:40:36;21.90;48.50
15359;DHT22;7779;49.596;11.070;2023-04-22T09:43:07;22.00;48.40
15359;DHT22;7779;49.596;11.070;2023-04-22T09:45:38;22.10;48.20
15359;DHT22;7779;49.596;11.070;2023-04-22T09:48:06;22.10;47.90
15359;DHT22;7779;49.596;11.070;2023-04-22T09:50:37;22.10;48.00
15359;DHT22;7779;49.596;11.070;2023-04-22T09:53:09;22.20;47.90
15359;DHT22;7779;49.596;11.070;2023-04-22T09:55:39;22.20;47.30
15359;DHT22;7779;49.596;11.070;2023-04-22T09:58:10;22.20;47.50
15359;DHT22;7779;49.596;11.070;2023-04-22T10:00:42;22.20;47.00
15359;DHT22;7779;49.596;11.070;2023-04-22T10:03:14;22.20;47.10
15359;DHT22;7779;49.596;11.070;2023-04-22T10:05:41;22.30;47.50
15359;DHT22;7779;49.596;11.070;2023-04-22T10:08:09;22.30;47.50
15359;DHT22;7779;49.596;11.070;2023-04-22T10:10:36;22.40;47.60
15359;DHT22;7779;49.596;11.070;2023-04-22T10:13:03;22.40;48.10
15359;DHT22;7779;49.596;11.070;2023-04-22T10:15:50;22.50;47.60
15359;DHT22;7779;49.596;11.070;2023-04-22T10:18:23;22.60;46.30
15359;DHT22;7779;49.596;11.070;2023-04-22T10:20:52;22.70;46.80
15359;DHT22;7779;49.596;11.070;2023-04-22T10:23:22;22.80;47.10
15359;DHT22;7779;49.596;11.070;2023-04-22T10:25:52;22.80;46.90
15359;DHT22;7779;49.596;11.070;2023-04-22T10:28:20;22.90;46.40
15359;DHT22;7779;49.596;11.070;2023-04-22T10:30:48;23.00;46.70
15359;DHT22;7779;49.596;11.070;2023-04-22T10:41:24;23.40;45.10
15359;DHT22;7779;49.596;11.070;2023-04-22T10:43:59;23.50;45.60
15359;DHT22;7779;49.596;11.070;2023-04-22T10:49:18;23.60;45.50
15359;DHT22;7779;49.596;11.070;2023-04-22T10:51:47;23.70;44.90
15359;DHT22;7779;49.596;11.070;2023-04-22T10:57:01;23.70;43.70
15359;DHT22;7779;49.596;11.070;2023-04-22T10:59:29;23.80;44.00
15359;DHT22;7779;49.596;11.070;2023-04-22T11:02:04;23.80;44.60
15359;DHT22;7779;49.596;11.070;2023-04-22T11:04:31;23.90;44.30
15359;DHT22;7779;49.596;11.070;2023-04-22T11:07:29;23.90;44.40
15359;DHT22;7779;49.596;11.070;2023-04-22T11:15:17;24.00;44.70
15359;DHT22;7779;49.596;11.070;2023-04-22T11:17:50;24.10;43.10
15359;DHT22;7779;49.596;11.070;2023-04-22T11:20:17;24.10;43.50
15359;DHT22;7779;49.596;11.070;2023-04-22T11:22:45;24.20;43.90
15359;DHT22;7779;49.596;11.070;2023-04-22T11:25:13;24.30;43.80
15359;DHT22;7779;49.596;11.070;2023-04-22T11:27:39;24.30;43.70
15359;DHT22;7779;49.596;11.070;2023-04-22T11:30:20;24.50;43.70
15359;DHT22;7779;49.596;11.070;2023-04-22T11:32:49;24.50;43.50
15359;DHT22;7779;49.596;11.070;2023-04-22T11:37:54;24.80;43.40
15359;DHT22;7779;49.596;11.070;2023-04-22T11:40:29;24.80;43.00
15359;DHT22;7779;49.596;11.070;2023-04-22T11:42:59;24.90;42.20
15359;DHT22;7779;49.596;11.070;2023-04-22T11:45:28;25.00;42.50
15359;DHT22;7779;49.596;11.070;2023-04-22T11:47:55;25.00;42.40
15359;DHT22;7779;49.596;11.070;2023-04-22T11:50:32;25.10;42.30
15359;DHT22;7779;49.596;11.070;2023-04-22T11:53:16;25.20;41.00
15359;DHT22;7779;49.596;11.070;2023-04-22T11:55:44;25.20;40.50
15359;DHT22;7779;49.596;11.070;2023-04-22T11:58:17;25.20;41.70
15359;DHT22;7779;49.596;11.070;2023-04-22T12:00:46;25.30;41.30
15359;DHT22;7779;49.596;11.070;2023-04-22T12:03:21;25.30;41.70
15359;DHT22;7779;49.596;11.070;2023-04-22T12:06:14;25.40;40.70
15359;DHT22;7779;49.596;11.070;2023-04-22T12:08:40;25.40;41.50
15359;DHT22;7779;49.596;11.070;2023-04-22T12:11:07;25.40;41.40
15359;DHT22;7779;49.596;11.070;2023-04-22T12:16:41;25.50;41.00
15359;DHT22;7779;49.596;11.070;2023-04-22T12:19:07;25.60;40.30
15359;DHT22;7779;49.596;11.070;2023-04-22T12:21:34;25.60;41.30
15359;DHT22;7779;49.596;11.070;2023-04-22T12:24:07;25.60;41.00
15359;DHT22;7779;49.596;11.070;2023-04-22T12:26:35;25.70;39.80
15359;DHT22;7779;49.596;11.070;2023-04-22T12:29:03;25.70;40.50
15359;DHT22;7779;49.596;11.070;2023-04-22T12:31:28;25.80;40.20
15359;DHT22;7779;49.596;11.070;2023-04-22T12:33:54;25.90;40.10
15359;DHT22;7779;49.596;11.070;2023-04-22T12:36:20;25.90;39.80
15359;DHT22;7779;49.596;11.070;2023-04-22T12:38:48;26.00;39.60
15359;DHT22;7779;49.596;11.070;2023-04-22T12:41:14;26.10;39.50
15359;DHT22;7779;49.596;11.070;2023-04-22T12:43:40;26.10;39.30
15359;DHT22;7779;49.596;11.070;2023-04-22T12:46:07;26.10;38.90
15359;DHT22;7779;49.596;11.070;2023-04-22T12:48:34;26.10;38.80
15359;DHT22;7779;49.596;11.070;2023-04-22T12:51:02;26.10;38.80
15359;DHT22;7779;49.596;11.070;2023-04-22T12:53:28;26.10;38.60
15359;DHT22;7779;49.596;11.070;2023-04-22T12:55:54;26.10;38.40
15359;DHT22;7779;49.596;11.070;2023-04-22T12:58:20;26.10;38.30
15359;DHT22;7779;49.596;11.070;2023-04-22T13:00:46;26.00;38.30
15359;DHT22;7779;49.596;11.070;2023-04-22T13:03:12;26.10;38.40
15359;DHT22;7779;49.596;11.070;2023-04-22T13:05:37;26.10;38.30
15359;DHT22;7779;49.596;11.070;2023-04-22T13:08:04;26.00;38.10
15359;DHT22;7779;49.596;11.070;2023-04-22T13:10:30;26.00;38.00
15359;DHT22;7779;49.596;11.070;2023-04-22T13:12:56;26.00;38.00
15359;DHT22;7779;49.596;11.070;2023-04-22T13:15:22;26.00;38.10
15359;DHT22;7779;49.596;11.070;2023-04-22T13:17:51;26.10;37.90
15359;DHT22;7779;49.596;11.070;2023-04-22T13:20:17;26.00;37.90
15359;DHT22;7779;49.596;11.070;2023-04-22T13:22:43;26.00;37.90
15359;DHT22;7779;49.596;11.070;2023-04-22T13:25:09;26.00;37.80
15359;DHT22;7779;49.596;11.070;2023-04-22T13:27:35;26.00;37.70
15359;DHT22;7779;49.596;11.070;2023-04-22T13:30:02;26.00;37.70
15359;DHT22;7779;49.596;11.070;2023-04-22T13:32:31;26.00;38.30
15359;DHT22;7779;49.596;11.070;2023-04-22T13:34:57;26.10;37.70
15359;DHT22;7779;49.596;11.070;2023-04-22T13:37:23;26.10;37.70
15359;DHT22;7779;49.596;11.070;2023-04-22T13:39:49;26.10;37.70
15359;DHT22;7779;49.596;11.070;2023-04-22T13:42:15;26.20;37.70
15359;DHT22;7779;49.596;11.070;2023-04-22T13:44:42;26.20;37.70
15359;DHT22;7779;49.596;11.070;2023-04-22T13:47:07;26.20;37.70
15359;DHT22;7779;49.596;11.070;2023-04-22T13:49:33;26.30;37.60
15359;DHT22;7779;49.596;11.070;2023-04-22T13:51:59;26.30;37.60
15359;DHT22;7779;49.596;11.070;2023-04-22T13:54:25;26.40;37.60
15359;DHT22;7779;49.596;11.070;2023-04-22T13:56:52;26.40;37.30
15359;DHT22;7779;49.596;11.070;2023-04-22T13:59:18;26.50;37.30
15359;DHT22;7779;49.596;11.070;2023-04-22T14:01:44;26.50;37.10
15359;DHT22;7779;49.596;11.070;2023-04-22T14:04:10;26.50;37.00
15359;DHT22;7779;49.596;11.070;2023-04-22T14:06:35;26.60;37.00
15359;DHT22;7779;49.596;11.070;2023-04-22T14:09:02;26.60;37.00
15359;DHT22;7779;49.596;11.070;2023-04-22T14:11:29;26.60;36.90
15359;DHT22;7779;49.596;11.070;2023-04-22T14:13:55;26.70;36.90
15359;DHT22;7779;49.596;11.070;2023-04-22T14:16:21;26.70;36.90
15359;DHT22;7779;49.596;11.070;2023-04-22T14:18:47;26.70;36.90
15359;DHT22;7779;49.596;11.070;2023-04-22T14:21:13;26.70;36.90
15359;DHT22;7779;49.596;11.070;2023-04-22T14:23:39;26.70;36.70
15359;DHT22;7779;49.596;11.070;2023-04-22T14:26:08;26.70;36.60
15359;DHT22;7779;49.596;11.070;2023-04-22T14:28:36;26.80;36.70
15359;DHT22;7779;49.596;11.070;2023-04-22T14:31:02;26.80;36.80
15359;DHT22;7779;49.596;11.070;2023-04-22T14:33:28;26.70;36.80
15359;DHT22;7779;49.596;11.070;2023-04-22T14:35:54;26.80;36.80
15359;DHT22;7779;49.596;11.070;2023-04-22T14:38:21;26.80;36.80
15359;DHT22;7779;49.596;11.070;2023-04-22T14:40:47;26.70;35.90
15359;DHT22;7779;49.596;11.070;2023-04-22T14:43:14;26.70;36.80
15359;DHT22;7779;49.596;11.070;2023-04-22T14:45:41;26.70;36.70
15359;DHT22;7779;49.596;11.070;2023-04-22T14:48:06;26.70;36.60
15359;DHT22;7779;49.596;11.070;2023-04-22T14:50:32;26.70;36.50
15359;DHT22;7779;49.596;11.070;2023-04-22T14:52:58;26.60;36.40
15359;DHT22;7779;49.596;11.070;2023-04-22T14:55:24;26.60;36.40
15359;DHT22;7779;49.596;11.070;2023-04-22T14:57:53;26.60;36.40
15359;DHT22;7779;49.596;11.070;2023-04-22T15:00:21;26.60;36.30
15359;DHT22;7779;49.596;11.070;2023-04-22T15:02:47;26.60;36.30
15359;DHT22;7779;49.596;11.070;2023-04-22T15:05:13;26.60;36.10
15359;DHT22;7779;49.596;11.070;2023-04-22T15:07:39;26.60;35.90
15359;DHT22;7779;49.596;11.070;2023-04-22T15:10:05;26.50;35.60
15359;DHT22;7779;49.596;11.070;2023-04-22T15:12:31;26.60;35.70
15359;DHT22;7779;49.596;11.070;2023-04-22T15:14:57;26.60;35.70
15359;DHT22;7779;49.596;11.070;2023-04-22T15:17:23;26.60;35.50
15359;DHT22;7779;49.596;11.070;2023-04-22T15:19:49;26.50;35.50
15359;DHT22;7779;49.596;11.070;2023-04-22T15:22:17;26.50;35.40
15359;DHT22;7779;49.596;11.070;2023-04-22T15:24:43;26.50;35.30
15359;DHT22;7779;49.596;11.070;2023-04-22T15:27:09;26.50;35.30
15359;DHT22;7779;49.596;11.070;2023-04-22T15:29:34;26.50;35.30
15359;DHT22;7779;49.596;11.070;2023-04-22T15:32:00;26.40;35.40
15359;DHT22;7779;49.596;11.070;2023-04-22T15:34:27;26.40;35.40
15359;DHT22;7779;49.596;11.070;2023-04-22T15:36:52;26.30;35.20
15359;DHT22;7779;49.596;11.070;2023-04-22T15:39:18;26.30;35.20
15359;DHT22;7779;49.596;11.070;2023-04-22T15:41:44;26.30;35.20
15359;DHT22;7779;49.596;11.070;2023-04-22T15:44:10;26.20;35.30
15359;DHT22;7779;49.596;11.070;2023-04-22T15:46:36;26.20;35.20
15359;DHT22;7779;49.596;11.070;2023-04-22T15:49:03;26.10;35.10
15359;DHT22;7779;49.596;11.070;2023-04-22T15:51:29;26.00;35.00
15359;DHT22;7779;49.596;11.070;2023-04-22T15:53:56;26.00;35.10
15359;DHT22;7779;49.596;11.070;2023-04-22T15:56:22;25.90;35.00
15359;DHT22;7779;49.596;11.070;2023-04-22T15:58:49;25.80;35.00